sensor_id;sensor_type;location;lat;lon;timestamp;pressure;altitude;pressure_sealevel;temperature;humidity
69405;BME280;57084;52.046;5.632;2022-07-29T00:00:00;101690;;;20.2;45.4
69405;BME280;57084;52.046;5.632;2022-07-29T00:01:00;101680;;;20.2;45.2
69405;BME280;57084;52.046;5.632;2022-07-29T00:02:00;101680;;;20.2;45.2
69405;BME280;57084;52.046;5.632;2022-07-29T00:03:00;101680;;;20.2;45.6
69405;BME280;57084;52.046;5.632;2022-07-29T00:04:00;101680;;;20.2;45.6
69405;BME280;57084;52.046;5.632;2022-07-29T00:05:00;101670;;;20.2;45.5
69405;BME280;57084;52.046;5.632;2022-07-29T00:06:00;101670;;;20.2;45.5
69405;BME280;57084;52.046;5.632;2022-07-29T00:07:00;101680;;;20.1;45.8
69405;BME280;57084;52.046;5.632;2022-07-29T00:08:00;101680;;;20.1;45.8
69405;BME280;57084;52.046;5.632;2022-07-29T00:09:00;101680;;;20.1;45.7
69405;BME280;57084;52.046;5.632;2022-07-29T00:10:00;101680;;;20.1;45.7
69405;BME280;57084;52.046;5.632;2022-07-29T00:11:00;101680;;;20.1;45.6
69405;BME280;57084;52.046;5.632;2022-07-29T00:12:00;101680;;;20.1;45.6
69405;BME280;57084;52.046;5.632;2022-07-29T00:13:00;101670;;;20.1;45.9
69405;BME280;57084;52.046;5.632;2022-07-29T00:14:00;101670;;;20.1;45.9
69405;BME280;57084;52.046;5.632;2022-07-29T00:15:00;101670;;;20.1;45.7
69405;BME280;57084;52.046;5.632;2022-07-29T00:16:00;101670;;;20.1;45.7
69405;BME280;57084;52.046;5.632;2022-07-29T00:17:00;101670;;;20.0;46.1
69405;BME280;57084;52.046;5.632;2022-07-29T00:18:00;101670;;;20.0;46.1
69405;BME280;57084;52.046;5.632;2022-07-29T00:19:00;101670;;;20.0;46.0
69405;BME280;57084;52.046;5.632;2022-07-29T00:20:00;101670;;;20.0;46.0
69405;BME280;57084;52.046;5.632;2022-07-29T00:21:00;101660;;;20.0;45.9
69405;BME280;57084;52.046;5.632;2022-07-29T00:22:00;101660;;;20.0;45.9
69405;BME280;57084;52.046;5.632;2022-07-29T00:23:00;101670;;;20.0;46.2
69405;BME280;57084;52.046;5.632;2022-07-29T00:24:00;101670;;;20.0;46.2
69405;BME280;57084;52.046;5.632;2022-07-29T00:25:00;101660;;;20.0;46.0
69405;BME280;57084;52.046;5.632;2022-07-29T00:26:00;101660;;;20.0;46.0
69405;BME280;57084;52.046;5.632;2022-07-29T00:27:00;101660;;;20.0;46.3
69405;BME280;57084;52.046;5.632;2022-07-29T00:28:00;101660;;;20.0;46.3
69405;BME280;57084;52.046;5.632;2022-07-29T00:29:00;101670;;;20.0;46.1
69405;BME280;57084;52.046;5.632;2022-07-29T00:30:00;101670;;;20.0;46.1
69405;BME280;57084;52.046;5.632;2022-07-29T00:31:00;101660;;;20.0;46.0
69405;BME280;57084;52.046;5.632;2022-07-29T00:32:00;101660;;;20.0;46.0
69405;BME280;57084;52.046;5.632;2022-07-29T00:33:00;101660;;;19.9;46.4
69405;BME280;57084;52.046;5.632;2022-07-29T00:34:00;101660;;;19.9;46.4
69405;BME280;57084;52.046;5.632;2022-07-29T00:35:00;101650;;;19.9;46.3
69405;BME280;57084;52.046;5.632;2022-07-29T00:36:00;101650;;;19.9;46.3
69405;BME280;57084;52.046;5.632;2022-07-29T00:37:00;101650;;;19.8;46.6
69405;BME280;57084;52.046;5.632;2022-07-29T00:38:00;101650;;;19.8;46.6
69405;BME280;57084;52.046;5.632;2022-07-29T00:39:00;101650;;;19.9;46.5
69405;BME280;57084;52.046;5.632;2022-07-29T00:40:00;101650;;;19.9;46.5
69405;BME280;57084;52.046;5.632;2022-07-29T00:41:00;101640;;;19.9;46.4
69405;BME280;57084;52.046;5.632;2022-07-29T00:42:01;101640;;;19.9;46.4
69405;BME280;57084;52.046;5.632;2022-07-29T00:43:00;101640;;;19.8;46.7
69405;BME280;57084;52.046;5.632;2022-07-29T00:44:00;101640;;;19.8;46.7
69405;BME280;57084;52.046;5.632;2022-07-29T00:45:00;101640;;;19.9;46.6
69405;BME280;57084;52.046;5.632;2022-07-29T00:46:00;101640;;;19.9;46.6
69405;BME280;57084;52.046;5.632;2022-07-29T00:47:00;101640;;;19.8;46.7
69405;BME280;57084;52.046;5.632;2022-07-29T00:48:00;101640;;;19.8;46.7
69405;BME280;57084;52.046;5.632;2022-07-29T00:49:00;101640;;;19.8;46.8
69405;BME280;57084;52.046;5.632;2022-07-29T00:50:00;101640;;;19.8;46.8
69405;BME280;57084;52.046;5.632;2022-07-29T00:51:01;101640;;;19.8;46.7
69405;BME280;57084;52.046;5.632;2022-07-29T00:52:00;101640;;;19.8;46.7
69405;BME280;57084;52.046;5.632;2022-07-29T00:53:00;101640;;;19.7;47.1
69405;BME280;57084;52.046;5.632;2022-07-29T00:54:00;101640;;;19.7;47.1
69405;BME280;57084;52.046;5.632;2022-07-29T00:55:00;101630;;;19.7;47.0
69405;BME280;57084;52.046;5.632;2022-07-29T00:56:00;101630;;;19.7;47.0
69405;BME280;57084;52.046;5.632;2022-07-29T00:57:00;101630;;;19.6;47.1
69405;BME280;57084;52.046;5.632;2022-07-29T00:58:00;101630;;;19.6;47.1
69405;BME280;57084;52.046;5.632;2022-07-29T00:59:00;101630;;;19.6;47.3
69405;BME280;57084;52.046;5.632;2022-07-29T01:00:00;101630;;;19.6;47.3
69405;BME280;57084;52.046;5.632;2022-07-29T01:01:00;101630;;;19.6;47.2
69405;BME280;57084;52.046;5.632;2022-07-29T01:02:00;101630;;;19.6;47.2
69405;BME280;57084;52.046;5.632;2022-07-29T01:03:00;101630;;;19.5;47.5
69405;BME280;57084;52.046;5.632;2022-07-29T01:04:00;101630;;;19.5;47.5
69405;BME280;57084;52.046;5.632;2022-07-29T01:05:02;101630;;;19.6;47.3
69405;BME280;57084;52.046;5.632;2022-07-29T01:06:00;101630;;;19.6;47.3
69405;BME280;57084;52.046;5.632;2022-07-29T01:07:00;101630;;;19.6;47.3
69405;BME280;57084;52.046;5.632;2022-07-29T01:08:00;101630;;;19.6;47.3
69405;BME280;57084;52.046;5.632;2022-07-29T01:09:00;101630;;;19.5;47.5
69405;BME280;57084;52.046;5.632;2022-07-29T01:10:00;101630;;;19.5;47.5
69405;BME280;57084;52.046;5.632;2022-07-29T01:11:00;101630;;;19.5;47.3
69405;BME280;57084;52.046;5.632;2022-07-29T01:12:00;101630;;;19.5;47.3
69405;BME280;57084;52.046;5.632;2022-07-29T01:13:01;101630;;;19.5;47.6
69405;BME280;57084;52.046;5.632;2022-07-29T01:14:00;101630;;;19.5;47.6
69405;BME280;57084;52.046;5.632;2022-07-29T01:15:00;101620;;;19.5;47.4
69405;BME280;57084;52.046;5.632;2022-07-29T01:16:02;101620;;;19.5;47.4
69405;BME280;57084;52.046;5.632;2022-07-29T01:17:02;101620;;;19.5;47.3
69405;BME280;57084;52.046;5.632;2022-07-29T01:18:01;101620;;;19.5;47.3
69405;BME280;57084;52.046;5.632;2022-07-29T01:19:00;101620;;;19.5;47.5
69405;BME280;57084;52.046;5.632;2022-07-29T01:20:03;101620;;;19.5;47.5
69405;BME280;57084;52.046;5.632;2022-07-29T01:22:02;101620;;;19.6;47.3
69405;BME280;57084;52.046;5.632;2022-07-29T01:23:03;101620;;;19.6;47.5
69405;BME280;57084;52.046;5.632;2022-07-29T01:24:07;101620;;;19.6;47.5
69405;BME280;57084;52.046;5.632;2022-07-29T01:25:03;101610;;;19.6;47.4
69405;BME280;57084;52.046;5.632;2022-07-29T01:26:04;101610;;;19.6;47.4
69405;BME280;57084;52.046;5.632;2022-07-29T01:27:02;101620;;;19.6;47.2
69405;BME280;57084;52.046;5.632;2022-07-29T01:28:01;101620;;;19.6;47.2
69405;BME280;57084;52.046;5.632;2022-07-29T01:29:02;101610;;;19.6;47.5
69405;BME280;57084;52.046;5.632;2022-07-29T01:30:00;101610;;;19.6;47.5
69405;BME280;57084;52.046;5.632;2022-07-29T01:31:00;101610;;;19.6;47.4
69405;BME280;57084;52.046;5.632;2022-07-29T01:32:01;101610;;;19.6;47.4
69405;BME280;57084;52.046;5.632;2022-07-29T01:33:01;101620;;;19.5;47.7
69405;BME280;57084;52.046;5.632;2022-07-29T01:34:01;101620;;;19.5;47.7
69405;BME280;57084;52.046;5.632;2022-07-29T01:35:01;101610;;;19.5;47.6
69405;BME280;57084;52.046;5.632;2022-07-29T01:36:00;101610;;;19.5;47.6
69405;BME280;57084;52.046;5.632;2022-07-29T01:37:01;101610;;;19.5;47.5
69405;BME280;57084;52.046;5.632;2022-07-29T01:38:01;101610;;;19.5;47.5
69405;BME280;57084;52.046;5.632;2022-07-29T01:39:02;101610;;;19.5;47.8
69405;BME280;57084;52.046;5.632;2022-07-29T01:40:00;101610;;;19.5;47.8
69405;BME280;57084;52.046;5.632;2022-07-29T01:41:01;101620;;;19.5;47.7
69405;BME280;57084;52.046;5.632;2022-07-29T01:42:01;101620;;;19.5;47.7
69405;BME280;57084;52.046;5.632;2022-07-29T01:43:01;101620;;;19.4;48.0
69405;BME280;57084;52.046;5.632;2022-07-29T01:44:01;101620;;;19.4;48.0
69405;BME280;57084;52.046;5.632;2022-07-29T01:45:01;101620;;;19.4;47.9
69405;BME280;57084;52.046;5.632;2022-07-29T01:46:00;101620;;;19.4;47.9
69405;BME280;57084;52.046;5.632;2022-07-29T01:47:00;101610;;;19.4;47.8
69405;BME280;57084;52.046;5.632;2022-07-29T01:48:00;101610;;;19.4;47.8
69405;BME280;57084;52.046;5.632;2022-07-29T01:49:02;101610;;;19.4;48.1
69405;BME280;57084;52.046;5.632;2022-07-29T01:50:00;101610;;;19.4;48.1
69405;BME280;57084;52.046;5.632;2022-07-29T01:51:02;101620;;;19.4;48.0
69405;BME280;57084;52.046;5.632;2022-07-29T01:52:01;101620;;;19.4;48.0
69405;BME280;57084;52.046;5.632;2022-07-29T01:53:01;101620;;;19.3;48.2
69405;BME280;57084;52.046;5.632;2022-07-29T01:54:01;101620;;;19.3;48.2
69405;BME280;57084;52.046;5.632;2022-07-29T01:55:02;101620;;;19.3;48.2
69405;BME280;57084;52.046;5.632;2022-07-29T01:56:00;101620;;;19.3;48.2
69405;BME280;57084;52.046;5.632;2022-07-29T01:57:00;101620;;;19.3;48.1
69405;BME280;57084;52.046;5.632;2022-07-29T01:58:00;101620;;;19.3;48.1
69405;BME280;57084;52.046;5.632;2022-07-29T01:59:00;101630;;;19.2;48.4
69405;BME280;57084;52.046;5.632;2022-07-29T02:00:00;101630;;;19.2;48.4
69405;BME280;57084;52.046;5.632;2022-07-29T02:01:00;101630;;;19.2;48.3
69405;BME280;57084;52.046;5.632;2022-07-29T02:02:00;101630;;;19.2;48.3
69405;BME280;57084;52.046;5.632;2022-07-29T02:03:09;101640;;;19.2;48.5
69405;BME280;57084;52.046;5.632;2022-07-29T02:04:00;101640;;;19.2;48.5
69405;BME280;57084;52.046;5.632;2022-07-29T02:05:00;101630;;;19.2;48.3
69405;BME280;57084;52.046;5.632;2022-07-29T02:06:00;101630;;;19.2;48.3
69405;BME280;57084;52.046;5.632;2022-07-29T02:07:00;101640;;;19.2;48.2
69405;BME280;57084;52.046;5.632;2022-07-29T02:08:00;101640;;;19.2;48.2
69405;BME280;57084;52.046;5.632;2022-07-29T02:09:00;101640;;;19.2;48.4
69405;BME280;57084;52.046;5.632;2022-07-29T02:10:00;101640;;;19.2;48.4
69405;BME280;57084;52.046;5.632;2022-07-29T02:11:00;101640;;;19.3;48.2
69405;BME280;57084;52.046;5.632;2022-07-29T02:12:00;101640;;;19.3;48.2
69405;BME280;57084;52.046;5.632;2022-07-29T02:13:00;101640;;;19.2;48.4
69405;BME280;57084;52.046;5.632;2022-07-29T02:14:00;101640;;;19.2;48.4
69405;BME280;57084;52.046;5.632;2022-07-29T02:15:00;101640;;;19.3;48.3
69405;BME280;57084;52.046;5.632;2022-07-29T02:16:00;101640;;;19.3;48.3
69405;BME280;57084;52.046;5.632;2022-07-29T02:17:00;101640;;;19.3;48.1
69405;BME280;57084;52.046;5.632;2022-07-29T02:18:01;101640;;;19.3;48.1
69405;BME280;57084;52.046;5.632;2022-07-29T02:19:00;101640;;;19.3;48.3
69405;BME280;57084;52.046;5.632;2022-07-29T02:20:01;101640;;;19.3;48.3
69405;BME280;57084;52.046;5.632;2022-07-29T02:21:00;101630;;;19.3;48.2
69405;BME280;57084;52.046;5.632;2022-07-29T02:22:00;101630;;;19.3;48.2
69405;BME280;57084;52.046;5.632;2022-07-29T02:23:00;101630;;;19.3;48.4
69405;BME280;57084;52.046;5.632;2022-07-29T02:24:00;101630;;;19.3;48.4
69405;BME280;57084;52.046;5.632;2022-07-29T02:25:00;101630;;;19.3;48.3
69405;BME280;57084;52.046;5.632;2022-07-29T02:26:00;101630;;;19.3;48.3
69405;BME280;57084;52.046;5.632;2022-07-29T02:27:00;101620;;;19.3;48.2
69405;BME280;57084;52.046;5.632;2022-07-29T02:28:00;101620;;;19.3;48.2
69405;BME280;57084;52.046;5.632;2022-07-29T02:29:00;101620;;;19.3;48.4
69405;BME280;57084;52.046;5.632;2022-07-29T02:30:00;101620;;;19.3;48.4
69405;BME280;57084;52.046;5.632;2022-07-29T02:31:00;101620;;;19.3;48.3
69405;BME280;57084;52.046;5.632;2022-07-29T02:32:00;101620;;;19.3;48.3
69405;BME280;57084;52.046;5.632;2022-07-29T02:33:00;101610;;;19.2;48.5
69405;BME280;57084;52.046;5.632;2022-07-29T02:34:00;101610;;;19.2;48.5
69405;BME280;57084;52.046;5.632;2022-07-29T02:35:00;101610;;;19.2;48.5
69405;BME280;57084;52.046;5.632;2022-07-29T02:36:00;101610;;;19.2;48.5
69405;BME280;57084;52.046;5.632;2022-07-29T02:37:00;101610;;;19.2;48.4
69405;BME280;57084;52.046;5.632;2022-07-29T02:38:00;101610;;;19.2;48.4
69405;BME280;57084;52.046;5.632;2022-07-29T02:39:00;101610;;;19.2;48.8
69405;BME280;57084;52.046;5.632;2022-07-29T02:40:00;101610;;;19.2;48.8
69405;BME280;57084;52.046;5.632;2022-07-29T02:41:00;101620;;;19.2;48.7
69405;BME280;57084;52.046;5.632;2022-07-29T02:42:01;101620;;;19.2;48.7
69405;BME280;57084;52.046;5.632;2022-07-29T02:43:00;101620;;;19.1;48.9
69405;BME280;57084;52.046;5.632;2022-07-29T02:44:02;101620;;;19.1;48.9
69405;BME280;57084;52.046;5.632;2022-07-29T02:45:00;101610;;;19.1;48.9
69405;BME280;57084;52.046;5.632;2022-07-29T02:46:00;101610;;;19.1;48.9
69405;BME280;57084;52.046;5.632;2022-07-29T02:47:02;101610;;;19.1;48.8
69405;BME280;57084;52.046;5.632;2022-07-29T02:48:00;101610;;;19.1;48.8
69405;BME280;57084;52.046;5.632;2022-07-29T02:49:02;101610;;;19.1;49.1
69405;BME280;57084;52.046;5.632;2022-07-29T02:50:00;101610;;;19.1;49.1
69405;BME280;57084;52.046;5.632;2022-07-29T02:51:01;101610;;;19.1;48.9
69405;BME280;57084;52.046;5.632;2022-07-29T02:52:01;101610;;;19.1;48.9
69405;BME280;57084;52.046;5.632;2022-07-29T02:53:00;101610;;;19.0;49.1
69405;BME280;57084;52.046;5.632;2022-07-29T02:54:01;101610;;;19.0;49.1
69405;BME280;57084;52.046;5.632;2022-07-29T02:55:01;101600;;;19.0;49.1
69405;BME280;57084;52.046;5.632;2022-07-29T02:56:01;101600;;;19.0;49.1
69405;BME280;57084;52.046;5.632;2022-07-29T02:57:00;101590;;;19.0;49.0
69405;BME280;57084;52.046;5.632;2022-07-29T02:58:00;101590;;;19.0;49.0
69405;BME280;57084;52.046;5.632;2022-07-29T02:59:01;101600;;;19.0;49.4
69405;BME280;57084;52.046;5.632;2022-07-29T03:00:01;101600;;;19.0;49.4
69405;BME280;57084;52.046;5.632;2022-07-29T03:01:01;101600;;;19.0;49.3
69405;BME280;57084;52.046;5.632;2022-07-29T03:02:00;101600;;;19.0;49.3
69405;BME280;57084;52.046;5.632;2022-07-29T03:03:00;101610;;;19.0;49.4
69405;BME280;57084;52.046;5.632;2022-07-29T03:04:00;101610;;;19.0;49.4
69405;BME280;57084;52.046;5.632;2022-07-29T03:05:00;101610;;;19.0;49.4
69405;BME280;57084;52.046;5.632;2022-07-29T03:06:00;101610;;;19.0;49.4
69405;BME280;57084;52.046;5.632;2022-07-29T03:07:00;101600;;;19.0;49.3
69405;BME280;57084;52.046;5.632;2022-07-29T03:08:00;101600;;;19.0;49.3
69405;BME280;57084;52.046;5.632;2022-07-29T03:09:00;101600;;;19.0;49.6
69405;BME280;57084;52.046;5.632;2022-07-29T03:10:00;101600;;;19.0;49.6
69405;BME280;57084;52.046;5.632;2022-07-29T03:11:01;101600;;;19.0;49.5
69405;BME280;57084;52.046;5.632;2022-07-29T03:12:00;101600;;;19.0;49.5
69405;BME280;57084;52.046;5.632;2022-07-29T03:13:00;101600;;;19.0;49.5
69405;BME280;57084;52.046;5.632;2022-07-29T03:14:00;101600;;;19.0;49.5
69405;BME280;57084;52.046;5.632;2022-07-29T03:15:00;101590;;;19.0;49.7
69405;BME280;57084;52.046;5.632;2022-07-29T03:16:00;101590;;;19.0;49.7
69405;BME280;57084;52.046;5.632;2022-07-29T03:17:00;101590;;;19.0;49.6
69405;BME280;57084;52.046;5.632;2022-07-29T03:18:00;101590;;;19.0;49.6
69405;BME280;57084;52.046;5.632;2022-07-29T03:19:00;101590;;;18.9;49.9
69405;BME280;57084;52.046;5.632;2022-07-29T03:20:00;101590;;;18.9;49.9
69405;BME280;57084;52.046;5.632;2022-07-29T03:21:00;101590;;;19.0;49.8
69405;BME280;57084;52.046;5.632;2022-07-29T03:22:00;101590;;;19.0;49.8
69405;BME280;57084;52.046;5.632;2022-07-29T03:23:00;101590;;;18.9;49.8
69405;BME280;57084;52.046;5.632;2022-07-29T03:24:00;101590;;;18.9;49.8
69405;BME280;57084;52.046;5.632;2022-07-29T03:25:06;101580;;;18.9;50.1
69405;BME280;57084;52.046;5.632;2022-07-29T03:26:00;101580;;;18.9;50.1
69405;BME280;57084;52.046;5.632;2022-07-29T03:27:00;101590;;;18.9;50.0
69405;BME280;57084;52.046;5.632;2022-07-29T03:28:00;101590;;;18.9;50.0
69405;BME280;57084;52.046;5.632;2022-07-29T03:29:00;101580;;;18.9;50.4
69405;BME280;57084;52.046;5.632;2022-07-29T03:30:00;101580;;;18.9;50.4
69405;BME280;57084;52.046;5.632;2022-07-29T03:31:00;101580;;;18.9;50.2
69405;BME280;57084;52.046;5.632;2022-07-29T03:32:01;101580;;;18.9;50.2
69405;BME280;57084;52.046;5.632;2022-07-29T03:33:00;101570;;;18.9;50.1
69405;BME280;57084;52.046;5.632;2022-07-29T03:34:00;101570;;;18.9;50.1
69405;BME280;57084;52.046;5.632;2022-07-29T03:35:00;101570;;;18.9;50.4
69405;BME280;57084;52.046;5.632;2022-07-29T03:36:00;101570;;;18.9;50.4
69405;BME280;57084;52.046;5.632;2022-07-29T03:37:00;101570;;;18.9;50.3
69405;BME280;57084;52.046;5.632;2022-07-29T03:38:00;101570;;;18.9;50.3
69405;BME280;57084;52.046;5.632;2022-07-29T03:39:00;101570;;;18.9;50.6
69405;BME280;57084;52.046;5.632;2022-07-29T03:40:00;101570;;;18.9;50.6
69405;BME280;57084;52.046;5.632;2022-07-29T03:41:00;101570;;;18.9;50.5
69405;BME280;57084;52.046;5.632;2022-07-29T03:42:00;101570;;;18.9;50.5
69405;BME280;57084;52.046;5.632;2022-07-29T03:43:00;101570;;;18.9;50.3
69405;BME280;57084;52.046;5.632;2022-07-29T03:44:00;101570;;;18.9;50.3
69405;BME280;57084;52.046;5.632;2022-07-29T03:45:00;101570;;;18.8;50.7
69405;BME280;57084;52.046;5.632;2022-07-29T03:46:00;101570;;;18.8;50.7
69405;BME280;57084;52.046;5.632;2022-07-29T03:47:00;101570;;;18.8;50.6
69405;BME280;57084;52.046;5.632;2022-07-29T03:48:00;101570;;;18.8;50.6
69405;BME280;57084;52.046;5.632;2022-07-29T03:49:00;101570;;;18.8;50.9
69405;BME280;57084;52.046;5.632;2022-07-29T03:50:01;101570;;;18.8;50.9
69405;BME280;57084;52.046;5.632;2022-07-29T03:51:00;101570;;;18.8;50.7
69405;BME280;57084;52.046;5.632;2022-07-29T03:52:00;101570;;;18.8;50.7
69405;BME280;57084;52.046;5.632;2022-07-29T03:53:00;101560;;;18.8;50.6
69405;BME280;57084;52.046;5.632;2022-07-29T03:54:00;101560;;;18.8;50.6
69405;BME280;57084;52.046;5.632;2022-07-29T03:55:00;101570;;;18.8;50.9
69405;BME280;57084;52.046;5.632;2022-07-29T03:56:00;101570;;;18.8;50.9
69405;BME280;57084;52.046;5.632;2022-07-29T03:57:00;101560;;;18.8;50.7
69405;BME280;57084;52.046;5.632;2022-07-29T03:58:00;101560;;;18.8;50.7
69405;BME280;57084;52.046;5.632;2022-07-29T03:59:00;101560;;;18.8;51.0
69405;BME280;57084;52.046;5.632;2022-07-29T04:00:00;101560;;;18.8;51.0
69405;BME280;57084;52.046;5.632;2022-07-29T04:01:00;101570;;;18.8;50.8
69405;BME280;57084;52.046;5.632;2022-07-29T04:02:00;101570;;;18.8;50.8
69405;BME280;57084;52.046;5.632;2022-07-29T04:03:00;101560;;;18.8;50.7
69405;BME280;57084;52.046;5.632;2022-07-29T04:04:00;101560;;;18.8;50.7
69405;BME280;57084;52.046;5.632;2022-07-29T04:05:00;101560;;;18.7;51.0
69405;BME280;57084;52.046;5.632;2022-07-29T04:06:01;101560;;;18.7;51.0
69405;BME280;57084;52.046;5.632;2022-07-29T04:07:00;101550;;;18.7;51.0
69405;BME280;57084;52.046;5.632;2022-07-29T04:08:00;101550;;;18.7;51.0
69405;BME280;57084;52.046;5.632;2022-07-29T04:09:00;101560;;;18.6;51.3
69405;BME280;57084;52.046;5.632;2022-07-29T04:10:00;101560;;;18.6;51.3
69405;BME280;57084;52.046;5.632;2022-07-29T04:11:00;101560;;;18.6;51.2
69405;BME280;57084;52.046;5.632;2022-07-29T04:12:00;101560;;;18.6;51.2
69405;BME280;57084;52.046;5.632;2022-07-29T04:13:00;101550;;;18.6;51.2
69405;BME280;57084;52.046;5.632;2022-07-29T04:14:00;101550;;;18.6;51.2
69405;BME280;57084;52.046;5.632;2022-07-29T04:15:00;101550;;;18.5;51.6
69405;BME280;57084;52.046;5.632;2022-07-29T04:16:00;101550;;;18.5;51.6
69405;BME280;57084;52.046;5.632;2022-07-29T04:17:00;101550;;;18.5;51.5
69405;BME280;57084;52.046;5.632;2022-07-29T04:18:00;101550;;;18.5;51.5
69405;BME280;57084;52.046;5.632;2022-07-29T04:19:00;101560;;;18.4;51.8
69405;BME280;57084;52.046;5.632;2022-07-29T04:20:00;101560;;;18.4;51.8
69405;BME280;57084;52.046;5.632;2022-07-29T04:21:00;101560;;;18.4;51.7
69405;BME280;57084;52.046;5.632;2022-07-29T04:22:00;101560;;;18.4;51.7
69405;BME280;57084;52.046;5.632;2022-07-29T04:23:00;101570;;;18.5;51.5
69405;BME280;57084;52.046;5.632;2022-07-29T04:24:00;101570;;;18.5;51.5
69405;BME280;57084;52.046;5.632;2022-07-29T04:25:00;101580;;;18.5;51.7
69405;BME280;57084;52.046;5.632;2022-07-29T04:26:00;101580;;;18.5;51.7
69405;BME280;57084;52.046;5.632;2022-07-29T04:27:00;101580;;;18.5;51.5
69405;BME280;57084;52.046;5.632;2022-07-29T04:28:00;101580;;;18.5;51.5
69405;BME280;57084;52.046;5.632;2022-07-29T04:29:00;101580;;;18.5;51.7
69405;BME280;57084;52.046;5.632;2022-07-29T04:30:00;101580;;;18.5;51.7
69405;BME280;57084;52.046;5.632;2022-07-29T04:31:00;101580;;;18.6;51.5
69405;BME280;57084;52.046;5.632;2022-07-29T04:32:00;101580;;;18.6;51.5
69405;BME280;57084;52.046;5.632;2022-07-29T04:33:00;101580;;;18.6;51.3
69405;BME280;57084;52.046;5.632;2022-07-29T04:34:00;101580;;;18.6;51.3
69405;BME280;57084;52.046;5.632;2022-07-29T04:35:00;101580;;;18.6;51.5
69405;BME280;57084;52.046;5.632;2022-07-29T04:36:00;101580;;;18.6;51.5
69405;BME280;57084;52.046;5.632;2022-07-29T04:37:00;101580;;;18.6;51.3
69405;BME280;57084;52.046;5.632;2022-07-29T04:38:00;101580;;;18.6;51.3
69405;BME280;57084;52.046;5.632;2022-07-29T04:39:00;101580;;;18.6;51.6
69405;BME280;57084;52.046;5.632;2022-07-29T04:40:00;101580;;;18.6;51.6
69405;BME280;57084;52.046;5.632;2022-07-29T04:41:00;101570;;;18.6;51.4
69405;BME280;57084;52.046;5.632;2022-07-29T04:42:00;101570;;;18.6;51.4
69405;BME280;57084;52.046;5.632;2022-07-29T04:43:00;101570;;;18.6;51.4
69405;BME280;57084;52.046;5.632;2022-07-29T04:44:00;101570;;;18.6;51.4
69405;BME280;57084;52.046;5.632;2022-07-29T04:45:00;101560;;;18.5;51.7
69405;BME280;57084;52.046;5.632;2022-07-29T04:46:00;101560;;;18.5;51.7
69405;BME280;57084;52.046;5.632;2022-07-29T04:47:00;101570;;;18.5;51.7
69405;BME280;57084;52.046;5.632;2022-07-29T04:48:00;101570;;;18.5;51.7
69405;BME280;57084;52.046;5.632;2022-07-29T04:49:00;101570;;;18.4;52.0
69405;BME280;57084;52.046;5.632;2022-07-29T04:50:00;101570;;;18.4;52.0
69405;BME280;57084;52.046;5.632;2022-07-29T04:51:00;101570;;;18.4;52.0
69405;BME280;57084;52.046;5.632;2022-07-29T04:52:00;101570;;;18.4;52.0
69405;BME280;57084;52.046;5.632;2022-07-29T04:53:00;101560;;;18.4;51.9
69405;BME280;57084;52.046;5.632;2022-07-29T04:54:00;101560;;;18.4;51.9
69405;BME280;57084;52.046;5.632;2022-07-29T04:55:00;101570;;;18.4;52.1
69405;BME280;57084;52.046;5.632;2022-07-29T04:56:00;101570;;;18.4;52.1
69405;BME280;57084;52.046;5.632;2022-07-29T04:57:00;101570;;;18.4;51.9
69405;BME280;57084;52.046;5.632;2022-07-29T04:58:00;101570;;;18.4;51.9
69405;BME280;57084;52.046;5.632;2022-07-29T04:59:00;101570;;;18.3;52.0
69405;BME280;57084;52.046;5.632;2022-07-29T05:00:00;101570;;;18.3;52.0
69405;BME280;57084;52.046;5.632;2022-07-29T05:01:00;101560;;;18.4;52.0
69405;BME280;57084;52.046;5.632;2022-07-29T05:02:00;101560;;;18.4;52.0
69405;BME280;57084;52.046;5.632;2022-07-29T05:03:00;101570;;;18.4;51.8
69405;BME280;57084;52.046;5.632;2022-07-29T05:04:00;101570;;;18.4;51.8
69405;BME280;57084;52.046;5.632;2022-07-29T05:05:00;101570;;;18.4;52.0
69405;BME280;57084;52.046;5.632;2022-07-29T05:06:00;101570;;;18.4;52.0
69405;BME280;57084;52.046;5.632;2022-07-29T05:07:00;101570;;;18.4;52.0
69405;BME280;57084;52.046;5.632;2022-07-29T05:08:00;101570;;;18.4;52.0
69405;BME280;57084;52.046;5.632;2022-07-29T05:09:00;101580;;;18.3;52.1
69405;BME280;57084;52.046;5.632;2022-07-29T05:10:00;101580;;;18.3;52.1
69405;BME280;57084;52.046;5.632;2022-07-29T05:11:00;101570;;;18.3;52.2
69405;BME280;57084;52.046;5.632;2022-07-29T05:12:00;101570;;;18.3;52.2
69405;BME280;57084;52.046;5.632;2022-07-29T05:13:00;101580;;;18.3;52.0
69405;BME280;57084;52.046;5.632;2022-07-29T05:14:00;101580;;;18.3;52.0
69405;BME280;57084;52.046;5.632;2022-07-29T05:15:00;101590;;;18.3;52.2
69405;BME280;57084;52.046;5.632;2022-07-29T05:16:00;101590;;;18.3;52.2
69405;BME280;57084;52.046;5.632;2022-07-29T05:17:00;101590;;;18.4;52.1
69405;BME280;57084;52.046;5.632;2022-07-29T05:18:00;101590;;;18.4;52.1
69405;BME280;57084;52.046;5.632;2022-07-29T05:19:00;101590;;;18.4;52.0
69405;BME280;57084;52.046;5.632;2022-07-29T05:20:00;101590;;;18.4;52.0
69405;BME280;57084;52.046;5.632;2022-07-29T05:21:00;101580;;;18.4;52.1
69405;BME280;57084;52.046;5.632;2022-07-29T05:22:00;101580;;;18.4;52.1
69405;BME280;57084;52.046;5.632;2022-07-29T05:23:00;101580;;;18.4;52.1
69405;BME280;57084;52.046;5.632;2022-07-29T05:24:00;101580;;;18.4;52.1
69405;BME280;57084;52.046;5.632;2022-07-29T05:25:00;101580;;;18.3;52.4
69405;BME280;57084;52.046;5.632;2022-07-29T05:26:00;101580;;;18.3;52.4
69405;BME280;57084;52.046;5.632;2022-07-29T05:27:00;101580;;;18.3;52.2
69405;BME280;57084;52.046;5.632;2022-07-29T05:28:00;101580;;;18.3;52.2
69405;BME280;57084;52.046;5.632;2022-07-29T05:29:00;101580;;;18.3;52.2
69405;BME280;57084;52.046;5.632;2022-07-29T05:30:00;101580;;;18.3;52.2
69405;BME280;57084;52.046;5.632;2022-07-29T05:31:00;101590;;;18.3;52.4
69405;BME280;57084;52.046;5.632;2022-07-29T05:32:00;101590;;;18.3;52.4
69405;BME280;57084;52.046;5.632;2022-07-29T05:33:00;101590;;;18.3;52.2
69405;BME280;57084;52.046;5.632;2022-07-29T05:34:00;101590;;;18.3;52.2
69405;BME280;57084;52.046;5.632;2022-07-29T05:35:00;101590;;;18.4;52.4
69405;BME280;57084;52.046;5.632;2022-07-29T05:36:00;101590;;;18.4;52.4